Shoreacres, Texas
Current Conditions -  °F | °C
As of 7:50 PM on Friday 21 Nov 2014 (Local Time) from KEFD Reporting Station
Broken Clouds Broken Clouds  
Wind Chill: 63°   Ceiling: 4500
Heat Index: 63°   Visibility: 8mi
Dew Point: 61°   Wind: 12mph
Humidity: 94%   Direction: 100°E
Pressure: 30.14"   Gusts: NA
Location:  29.6785°N, 95.0483°W
Report Text: KEFD 220150Z 10010KT 8SM BKN045 17/16 A3014
Loading
Personal Weather Stations






























Interactive Weather Map New forecast layout! Learn more

10-Day Weather Forecast

Advertisements
Track Severe Weather on mobile